sensor_id;sensor_type;location;lat;lon;timestamp;temperature;humidity
20162;DHT22;51382;53.180;15.414;2022-08-19T00:05:54;19.40;99.90
20162;DHT22;51382;53.180;15.414;2022-08-19T00:21:05;19.90;99.90
20162;DHT22;51382;53.180;15.414;2022-08-19T00:36:12;20.10;99.90
20162;DHT22;51382;53.180;15.414;2022-08-19T00:51:23;20.10;99.90
20162;DHT22;51382;53.180;15.414;2022-08-19T01:06:37;20.40;99.90
20162;DHT22;51382;53.180;15.414;2022-08-19T01:21:50;20.60;99.90
20162;DHT22;51382;53.180;15.414;2022-08-19T01:37:01;20.60;99.90
20162;DHT22;51382;53.180;15.414;2022-08-19T01:52:14;20.60;99.90
20162;DHT22;51382;53.180;15.414;2022-08-19T02:07:20;20.60;99.90
20162;DHT22;51382;53.180;15.414;2022-08-19T02:22:27;20.60;99.90
20162;DHT22;51382;53.180;15.414;2022-08-19T02:37:38;20.50;99.90
20162;DHT22;51382;53.180;15.414;2022-08-19T02:53:07;20.50;99.90
20162;DHT22;51382;53.180;15.414;2022-08-19T03:08:18;20.60;99.90
20162;DHT22;51382;53.180;15.414;2022-08-19T03:23:29;20.60;99.90
20162;DHT22;51382;53.180;15.414;2022-08-19T03:38:42;20.70;99.90
20162;DHT22;51382;53.180;15.414;2022-08-19T03:53:57;20.70;99.90
20162;DHT22;51382;53.180;15.414;2022-08-19T04:09:10;20.70;99.90
20162;DHT22;51382;53.180;15.414;2022-08-19T04:24:17;20.80;99.90
20162;DHT22;51382;53.180;15.414;2022-08-19T04:39:30;20.80;99.90
20162;DHT22;51382;53.180;15.414;2022-08-19T04:54:58;21.50;99.90
20162;DHT22;51382;53.180;15.414;2022-08-19T05:10:10;21.20;99.90
20162;DHT22;51382;53.180;15.414;2022-08-19T05:25:21;21.20;99.90
20162;DHT22;51382;53.180;15.414;2022-08-19T05:40:28;21.00;99.90
20162;DHT22;51382;53.180;15.414;2022-08-19T05:55:40;21.30;99.90
20162;DHT22;51382;53.180;15.414;2022-08-19T06:10:51;20.80;99.90
20162;DHT22;51382;53.180;15.414;2022-08-19T06:25:58;21.40;99.90
20162;DHT22;51382;53.180;15.414;2022-08-19T06:41:09;21.60;99.90
20162;DHT22;51382;53.180;15.414;2022-08-19T06:56:21;22.30;99.90
20162;DHT22;51382;53.180;15.414;2022-08-19T07:11:39;24.50;99.90
20162;DHT22;51382;53.180;15.414;2022-08-19T07:26:55;23.70;99.90
20162;DHT22;51382;53.180;15.414;2022-08-19T07:42:09;24.00;99.90
20162;DHT22;51382;53.180;15.414;2022-08-19T07:57:21;23.10;99.90
20162;DHT22;51382;53.180;15.414;2022-08-19T08:12:34;23.10;99.90
20162;DHT22;51382;53.180;15.414;2022-08-19T08:27:49;22.90;99.90
20162;DHT22;51382;53.180;15.414;2022-08-19T08:43:02;23.40;99.90
20162;DHT22;51382;53.180;15.414;2022-08-19T08:58:16;23.50;99.90
20162;DHT22;51382;53.180;15.414;2022-08-19T09:13:42;23.70;99.90
20162;DHT22;51382;53.180;15.414;2022-08-19T09:29:00;23.90;99.90
20162;DHT22;51382;53.180;15.414;2022-08-19T09:44:13;25.20;99.90
20162;DHT22;51382;53.180;15.414;2022-08-19T09:59:24;26.90;99.90
20162;DHT22;51382;53.180;15.414;2022-08-19T10:14:31;27.10;99.90
20162;DHT22;51382;53.180;15.414;2022-08-19T10:29:42;27.70;99.90
20162;DHT22;51382;53.180;15.414;2022-08-19T10:44:50;28.40;99.90
20162;DHT22;51382;53.180;15.414;2022-08-19T11:00:02;28.60;99.90
20162;DHT22;51382;53.180;15.414;2022-08-19T11:15:17;28.60;99.90
20162;DHT22;51382;53.180;15.414;2022-08-19T11:30:27;28.20;99.90
20162;DHT22;51382;53.180;15.414;2022-08-19T11:45:38;28.20;99.90
20162;DHT22;51382;53.180;15.414;2022-08-19T12:00:50;28.50;99.90
20162;DHT22;51382;53.180;15.414;2022-08-19T12:16:01;28.50;99.90
20162;DHT22;51382;53.180;15.414;2022-08-19T12:31:20;28.60;99.90
20162;DHT22;51382;53.180;15.414;2022-08-19T12:46:31;29.30;99.90
20162;DHT22;51382;53.180;15.414;2022-08-19T13:01:43;29.30;99.90
20162;DHT22;51382;53.180;15.414;2022-08-19T13:16:55;29.70;99.90
20162;DHT22;51382;53.180;15.414;2022-08-19T13:32:06;27.70;99.90
20162;DHT22;51382;53.180;15.414;2022-08-19T13:47:35;23.80;99.90
20162;DHT22;51382;53.180;15.414;2022-08-19T14:02:45;23.90;99.90
20162;DHT22;51382;53.180;15.414;2022-08-19T14:17:56;24.50;99.90
20162;DHT22;51382;53.180;15.414;2022-08-19T14:33:07;24.20;99.90
20162;DHT22;51382;53.180;15.414;2022-08-19T14:48:18;24.70;99.90
20162;DHT22;51382;53.180;15.414;2022-08-19T15:03:30;25.00;99.90
20162;DHT22;51382;53.180;15.414;2022-08-19T15:18:41;25.00;99.90
20162;DHT22;51382;53.180;15.414;2022-08-19T15:33:53;24.50;99.90
20162;DHT22;51382;53.180;15.414;2022-08-19T15:49:00;25.00;99.90
20162;DHT22;51382;53.180;15.414;2022-08-19T16:04:13;24.70;99.90
20162;DHT22;51382;53.180;15.414;2022-08-19T16:19:43;24.70;99.90
20162;DHT22;51382;53.180;15.414;2022-08-19T16:34:49;24.00;99.90
20162;DHT22;51382;53.180;15.414;2022-08-19T16:49:58;23.60;99.90
20162;DHT22;51382;53.180;15.414;2022-08-19T17:05:12;23.00;99.90
20162;DHT22;51382;53.180;15.414;2022-08-19T17:20:24;22.80;99.90
20162;DHT22;51382;53.180;15.414;2022-08-19T17:35:35;22.40;99.90
20162;DHT22;51382;53.180;15.414;2022-08-19T17:50:50;22.40;99.90
20162;DHT22;51382;53.180;15.414;2022-08-19T18:05:56;22.20;99.90
20162;DHT22;51382;53.180;15.414;2022-08-19T18:21:08;22.20;99.90
20162;DHT22;51382;53.180;15.414;2022-08-19T18:36:14;22.10;99.90
20162;DHT22;51382;53.180;15.414;2022-08-19T18:51:26;21.90;99.90
20162;DHT22;51382;53.180;15.414;2022-08-19T19:06:34;21.90;99.90
20162;DHT22;51382;53.180;15.414;2022-08-19T19:21:48;21.90;99.90
20162;DHT22;51382;53.180;15.414;2022-08-19T19:37:00;21.70;99.90
20162;DHT22;51382;53.180;15.414;2022-08-19T19:52:06;21.80;99.90
20162;DHT22;51382;53.180;15.414;2022-08-19T20:07:17;21.60;99.90
20162;DHT22;51382;53.180;15.414;2022-08-19T20:22:50;21.40;99.90
20162;DHT22;51382;53.180;15.414;2022-08-19T20:38:02;21.20;99.90
20162;DHT22;51382;53.180;15.414;2022-08-19T20:53:16;21.20;99.90
20162;DHT22;51382;53.180;15.414;2022-08-19T21:08:30;21.20;99.90
20162;DHT22;51382;53.180;15.414;2022-08-19T21:23:41;21.20;99.90
20162;DHT22;51382;53.180;15.414;2022-08-19T21:38:52;21.20;99.90
20162;DHT22;51382;53.180;15.414;2022-08-19T21:53:58;21.00;99.90
20162;DHT22;51382;53.180;15.414;2022-08-19T22:09:04;20.70;99.90
20162;DHT22;51382;53.180;15.414;2022-08-19T22:24:16;20.70;99.90
20162;DHT22;51382;53.180;15.414;2022-08-19T22:39:27;20.70;99.90
20162;DHT22;51382;53.180;15.414;2022-08-19T22:54:37;20.60;99.90
20162;DHT22;51382;53.180;15.414;2022-08-19T23:09:49;20.50;99.90
20162;DHT22;51382;53.180;15.414;2022-08-19T23:25:03;20.50;99.90
20162;DHT22;51382;53.180;15.414;2022-08-19T23:40:15;20.50;99.90
20162;DHT22;51382;53.180;15.414;2022-08-19T23:55:29;20.70;99.90
